sensor_id;sensor_type;location;lat;lon;timestamp;P1;durP1;ratioP1;P2;durP2;ratioP2
62256;SDS011;48240;52.962;5.790;2022-07-06T00:00:02;3.13;;;0.80;;
62256;SDS011;48240;52.962;5.790;2022-07-06T00:02:28;3.75;;;0.70;;
62256;SDS011;48240;52.962;5.790;2022-07-06T00:04:54;3.05;;;0.80;;
62256;SDS011;48240;52.962;5.790;2022-07-06T00:07:20;1.95;;;1.00;;
62256;SDS011;48240;52.962;5.790;2022-07-06T00:09:47;1.88;;;0.70;;
62256;SDS011;48240;52.962;5.790;2022-07-06T00:12:13;2.97;;;0.90;;
62256;SDS011;48240;52.962;5.790;2022-07-06T00:14:40;4.03;;;0.80;;
62256;SDS011;48240;52.962;5.790;2022-07-06T00:17:06;2.35;;;0.60;;
62256;SDS011;48240;52.962;5.790;2022-07-06T00:19:32;2.50;;;0.70;;
62256;SDS011;48240;52.962;5.790;2022-07-06T00:21:58;1.85;;;0.70;;
62256;SDS011;48240;52.962;5.790;2022-07-06T00:24:24;2.17;;;0.70;;
62256;SDS011;48240;52.962;5.790;2022-07-06T00:26:50;3.53;;;0.80;;
62256;SDS011;48240;52.962;5.790;2022-07-06T00:29:16;4.07;;;0.80;;
62256;SDS011;48240;52.962;5.790;2022-07-06T00:31:42;2.20;;;0.70;;
62256;SDS011;48240;52.962;5.790;2022-07-06T00:34:09;3.58;;;0.82;;
62256;SDS011;48240;52.962;5.790;2022-07-06T00:36:35;2.47;;;0.90;;
62256;SDS011;48240;52.962;5.790;2022-07-06T00:39:01;1.92;;;0.63;;
62256;SDS011;48240;52.962;5.790;2022-07-06T00:41:27;3.03;;;0.80;;
62256;SDS011;48240;52.962;5.790;2022-07-06T00:43:54;3.38;;;0.70;;
62256;SDS011;48240;52.962;5.790;2022-07-06T00:46:22;2.13;;;0.73;;
62256;SDS011;48240;52.962;5.790;2022-07-06T00:48:49;2.00;;;0.73;;
62256;SDS011;48240;52.962;5.790;2022-07-06T00:51:15;3.45;;;0.93;;
62256;SDS011;48240;52.962;5.790;2022-07-06T00:53:41;2.20;;;0.70;;
62256;SDS011;48240;52.962;5.790;2022-07-06T00:56:08;1.58;;;0.60;;
62256;SDS011;48240;52.962;5.790;2022-07-06T00:58:35;3.05;;;0.70;;
62256;SDS011;48240;52.962;5.790;2022-07-06T01:01:01;2.80;;;0.65;;
62256;SDS011;48240;52.962;5.790;2022-07-06T01:03:27;3.38;;;0.75;;
62256;SDS011;48240;52.962;5.790;2022-07-06T01:05:53;5.93;;;0.85;;
62256;SDS011;48240;52.962;5.790;2022-07-06T01:08:20;3.22;;;0.80;;
62256;SDS011;48240;52.962;5.790;2022-07-06T01:10:46;1.88;;;0.60;;
62256;SDS011;48240;52.962;5.790;2022-07-06T01:13:12;1.85;;;0.80;;
62256;SDS011;48240;52.962;5.790;2022-07-06T01:15:38;2.38;;;0.75;;
62256;SDS011;48240;52.962;5.790;2022-07-06T01:18:05;4.72;;;0.85;;
62256;SDS011;48240;52.962;5.790;2022-07-06T01:20:31;1.95;;;0.60;;
62256;SDS011;48240;52.962;5.790;2022-07-06T01:22:58;2.92;;;0.70;;
62256;SDS011;48240;52.962;5.790;2022-07-06T01:25:24;3.38;;;0.80;;
62256;SDS011;48240;52.962;5.790;2022-07-06T01:27:50;3.63;;;0.60;;
62256;SDS011;48240;52.962;5.790;2022-07-06T01:30:17;4.68;;;0.70;;
62256;SDS011;48240;52.962;5.790;2022-07-06T01:32:44;4.50;;;0.95;;
62256;SDS011;48240;52.962;5.790;2022-07-06T01:35:11;2.25;;;0.65;;
62256;SDS011;48240;52.962;5.790;2022-07-06T01:37:37;1.83;;;0.70;;
62256;SDS011;48240;52.962;5.790;2022-07-06T01:40:04;2.58;;;0.73;;
62256;SDS011;48240;52.962;5.790;2022-07-06T01:42:30;1.63;;;0.52;;
62256;SDS011;48240;52.962;5.790;2022-07-06T01:44:57;2.78;;;0.93;;
62256;SDS011;48240;52.962;5.790;2022-07-06T01:47:23;2.30;;;0.75;;
62256;SDS011;48240;52.962;5.790;2022-07-06T01:49:49;2.97;;;0.73;;
62256;SDS011;48240;52.962;5.790;2022-07-06T01:52:15;3.63;;;0.90;;
62256;SDS011;48240;52.962;5.790;2022-07-06T01:54:41;2.00;;;0.80;;
62256;SDS011;48240;52.962;5.790;2022-07-06T01:57:07;1.60;;;0.70;;
62256;SDS011;48240;52.962;5.790;2022-07-06T01:59:34;1.80;;;0.60;;
62256;SDS011;48240;52.962;5.790;2022-07-06T02:02:00;3.42;;;0.70;;
62256;SDS011;48240;52.962;5.790;2022-07-06T02:04:26;1.52;;;0.63;;
62256;SDS011;48240;52.962;5.790;2022-07-06T02:06:52;2.22;;;0.50;;
62256;SDS011;48240;52.962;5.790;2022-07-06T02:09:18;2.20;;;0.75;;
62256;SDS011;48240;52.962;5.790;2022-07-06T02:11:45;1.92;;;0.65;;
62256;SDS011;48240;52.962;5.790;2022-07-06T02:14:11;1.27;;;0.57;;
62256;SDS011;48240;52.962;5.790;2022-07-06T02:16:37;1.40;;;0.55;;
62256;SDS011;48240;52.962;5.790;2022-07-06T02:19:03;3.85;;;0.70;;
62256;SDS011;48240;52.962;5.790;2022-07-06T02:21:29;2.25;;;0.65;;
62256;SDS011;48240;52.962;5.790;2022-07-06T02:23:55;1.05;;;0.50;;
62256;SDS011;48240;52.962;5.790;2022-07-06T02:26:21;2.65;;;0.90;;
62256;SDS011;48240;52.962;5.790;2022-07-06T02:28:47;2.50;;;0.50;;
62256;SDS011;48240;52.962;5.790;2022-07-06T02:31:14;3.05;;;0.82;;
62256;SDS011;48240;52.962;5.790;2022-07-06T02:33:40;2.15;;;0.60;;
62256;SDS011;48240;52.962;5.790;2022-07-06T02:36:06;2.13;;;0.60;;
62256;SDS011;48240;52.962;5.790;2022-07-06T02:38:32;3.05;;;0.70;;
62256;SDS011;48240;52.962;5.790;2022-07-06T02:40:58;2.88;;;0.70;;
62256;SDS011;48240;52.962;5.790;2022-07-06T02:43:24;1.67;;;0.63;;
62256;SDS011;48240;52.962;5.790;2022-07-06T02:45:51;1.52;;;0.70;;
62256;SDS011;48240;52.962;5.790;2022-07-06T02:48:17;1.77;;;0.60;;
62256;SDS011;48240;52.962;5.790;2022-07-06T02:50:46;1.35;;;0.45;;
62256;SDS011;48240;52.962;5.790;2022-07-06T02:53:12;1.75;;;0.63;;
62256;SDS011;48240;52.962;5.790;2022-07-06T02:55:38;2.17;;;0.70;;
62256;SDS011;48240;52.962;5.790;2022-07-06T02:58:04;1.00;;;0.50;;
62256;SDS011;48240;52.962;5.790;2022-07-06T03:00:31;2.72;;;0.85;;
62256;SDS011;48240;52.962;5.790;2022-07-06T03:02:57;2.45;;;0.60;;
62256;SDS011;48240;52.962;5.790;2022-07-06T03:05:23;3.40;;;0.65;;
62256;SDS011;48240;52.962;5.790;2022-07-06T03:07:49;1.08;;;0.50;;
62256;SDS011;48240;52.962;5.790;2022-07-06T03:10:15;1.15;;;0.50;;
62256;SDS011;48240;52.962;5.790;2022-07-06T03:12:41;2.70;;;0.60;;
62256;SDS011;48240;52.962;5.790;2022-07-06T03:15:07;2.63;;;0.60;;
62256;SDS011;48240;52.962;5.790;2022-07-06T03:17:37;1.95;;;0.70;;
62256;SDS011;48240;52.962;5.790;2022-07-06T03:20:04;2.22;;;0.70;;
62256;SDS011;48240;52.962;5.790;2022-07-06T03:22:30;1.05;;;0.55;;
62256;SDS011;48240;52.962;5.790;2022-07-06T03:24:56;3.28;;;0.65;;
62256;SDS011;48240;52.962;5.790;2022-07-06T03:27:22;0.95;;;0.50;;
62256;SDS011;48240;52.962;5.790;2022-07-06T03:29:48;1.55;;;0.60;;
62256;SDS011;48240;52.962;5.790;2022-07-06T03:32:14;3.13;;;0.63;;
62256;SDS011;48240;52.962;5.790;2022-07-06T03:34:40;4.13;;;0.60;;
62256;SDS011;48240;52.962;5.790;2022-07-06T03:37:07;2.25;;;0.52;;
62256;SDS011;48240;52.962;5.790;2022-07-06T03:39:33;1.88;;;0.60;;
62256;SDS011;48240;52.962;5.790;2022-07-06T03:41:59;1.33;;;0.50;;
62256;SDS011;48240;52.962;5.790;2022-07-06T03:44:25;3.60;;;0.65;;
62256;SDS011;48240;52.962;5.790;2022-07-06T03:46:51;2.35;;;0.70;;
62256;SDS011;48240;52.962;5.790;2022-07-06T03:49:20;1.50;;;0.47;;
62256;SDS011;48240;52.962;5.790;2022-07-06T03:51:46;1.00;;;0.40;;
62256;SDS011;48240;52.962;5.790;2022-07-06T03:54:12;3.88;;;0.80;;
62256;SDS011;48240;52.962;5.790;2022-07-06T03:56:38;1.33;;;0.52;;
62256;SDS011;48240;52.962;5.790;2022-07-06T03:59:04;3.05;;;0.77;;
62256;SDS011;48240;52.962;5.790;2022-07-06T04:01:30;3.88;;;1.10;;
62256;SDS011;48240;52.962;5.790;2022-07-06T04:03:57;7.30;;;0.82;;
62256;SDS011;48240;52.962;5.790;2022-07-06T04:06:23;2.85;;;0.57;;
62256;SDS011;48240;52.962;5.790;2022-07-06T04:08:49;4.85;;;0.90;;
62256;SDS011;48240;52.962;5.790;2022-07-06T04:11:15;3.92;;;0.55;;
62256;SDS011;48240;52.962;5.790;2022-07-06T04:13:41;5.57;;;0.68;;
62256;SDS011;48240;52.962;5.790;2022-07-06T04:16:08;2.92;;;0.73;;
62256;SDS011;48240;52.962;5.790;2022-07-06T04:18:34;7.65;;;1.30;;
62256;SDS011;48240;52.962;5.790;2022-07-06T04:21:00;4.32;;;1.15;;
62256;SDS011;48240;52.962;5.790;2022-07-06T04:23:27;4.10;;;1.40;;
62256;SDS011;48240;52.962;5.790;2022-07-06T04:25:53;2.78;;;0.80;;
62256;SDS011;48240;52.962;5.790;2022-07-06T04:28:19;2.65;;;0.77;;
62256;SDS011;48240;52.962;5.790;2022-07-06T04:30:45;3.92;;;0.95;;
62256;SDS011;48240;52.962;5.790;2022-07-06T04:33:11;2.53;;;0.70;;
62256;SDS011;48240;52.962;5.790;2022-07-06T04:35:37;4.13;;;1.00;;
62256;SDS011;48240;52.962;5.790;2022-07-06T04:38:03;2.15;;;0.70;;
62256;SDS011;48240;52.962;5.790;2022-07-06T04:40:30;4.68;;;0.70;;
62256;SDS011;48240;52.962;5.790;2022-07-06T04:42:56;1.10;;;0.68;;
62256;SDS011;48240;52.962;5.790;2022-07-06T04:45:22;5.18;;;1.08;;
62256;SDS011;48240;52.962;5.790;2022-07-06T04:47:48;3.00;;;1.05;;
62256;SDS011;48240;52.962;5.790;2022-07-06T04:50:14;4.13;;;1.10;;
62256;SDS011;48240;52.962;5.790;2022-07-06T04:52:41;3.65;;;0.90;;
62256;SDS011;48240;52.962;5.790;2022-07-06T04:55:07;2.17;;;0.90;;
62256;SDS011;48240;52.962;5.790;2022-07-06T04:57:34;3.22;;;0.70;;
62256;SDS011;48240;52.962;5.790;2022-07-06T05:00:00;6.07;;;0.90;;
62256;SDS011;48240;52.962;5.790;2022-07-06T05:02:26;3.80;;;0.85;;
62256;SDS011;48240;52.962;5.790;2022-07-06T05:04:52;3.42;;;0.88;;
62256;SDS011;48240;52.962;5.790;2022-07-06T05:07:18;2.35;;;0.70;;
62256;SDS011;48240;52.962;5.790;2022-07-06T05:09:44;2.35;;;1.00;;
62256;SDS011;48240;52.962;5.790;2022-07-06T05:12:10;1.83;;;0.75;;
62256;SDS011;48240;52.962;5.790;2022-07-06T05:14:36;1.92;;;0.77;;
62256;SDS011;48240;52.962;5.790;2022-07-06T05:17:03;3.42;;;0.95;;
62256;SDS011;48240;52.962;5.790;2022-07-06T05:19:29;3.45;;;0.90;;
62256;SDS011;48240;52.962;5.790;2022-07-06T05:21:55;2.88;;;0.90;;
62256;SDS011;48240;52.962;5.790;2022-07-06T05:24:21;2.47;;;1.10;;
62256;SDS011;48240;52.962;5.790;2022-07-06T05:26:47;7.15;;;1.00;;
62256;SDS011;48240;52.962;5.790;2022-07-06T05:29:13;2.33;;;0.90;;
62256;SDS011;48240;52.962;5.790;2022-07-06T05:31:39;2.45;;;0.80;;
62256;SDS011;48240;52.962;5.790;2022-07-06T05:34:05;2.83;;;0.90;;
62256;SDS011;48240;52.962;5.790;2022-07-06T05:36:31;2.10;;;0.80;;
62256;SDS011;48240;52.962;5.790;2022-07-06T05:38:57;4.47;;;1.02;;
62256;SDS011;48240;52.962;5.790;2022-07-06T05:41:23;3.83;;;0.82;;
62256;SDS011;48240;52.962;5.790;2022-07-06T05:43:49;2.63;;;0.80;;
62256;SDS011;48240;52.962;5.790;2022-07-06T05:46:15;4.28;;;0.80;;
62256;SDS011;48240;52.962;5.790;2022-07-06T05:48:41;2.17;;;0.77;;
62256;SDS011;48240;52.962;5.790;2022-07-06T05:51:26;4.00;;;1.50;;
62256;SDS011;48240;52.962;5.790;2022-07-06T05:53:52;2.28;;;0.75;;
62256;SDS011;48240;52.962;5.790;2022-07-06T05:56:18;2.50;;;0.80;;
62256;SDS011;48240;52.962;5.790;2022-07-06T05:58:44;2.85;;;0.90;;
62256;SDS011;48240;52.962;5.790;2022-07-06T06:01:10;1.77;;;0.70;;
62256;SDS011;48240;52.962;5.790;2022-07-06T06:03:36;3.58;;;0.80;;
62256;SDS011;48240;52.962;5.790;2022-07-06T06:06:02;2.55;;;0.82;;
62256;SDS011;48240;52.962;5.790;2022-07-06T06:08:28;4.85;;;1.02;;
62256;SDS011;48240;52.962;5.790;2022-07-06T06:10:55;3.88;;;0.70;;
62256;SDS011;48240;52.962;5.790;2022-07-06T06:13:21;2.97;;;0.85;;
62256;SDS011;48240;52.962;5.790;2022-07-06T06:15:47;1.67;;;0.60;;
62256;SDS011;48240;52.962;5.790;2022-07-06T06:18:13;4.60;;;0.88;;
62256;SDS011;48240;52.962;5.790;2022-07-06T06:20:44;8.07;;;0.63;;
62256;SDS011;48240;52.962;5.790;2022-07-06T06:23:10;2.22;;;0.90;;
62256;SDS011;48240;52.962;5.790;2022-07-06T06:25:37;2.85;;;0.60;;
62256;SDS011;48240;52.962;5.790;2022-07-06T06:28:03;2.65;;;0.50;;
62256;SDS011;48240;52.962;5.790;2022-07-06T06:30:30;4.15;;;0.70;;
62256;SDS011;48240;52.962;5.790;2022-07-06T06:33:12;3.67;;;0.60;;
62256;SDS011;48240;52.962;5.790;2022-07-06T06:35:42;5.07;;;1.20;;
62256;SDS011;48240;52.962;5.790;2022-07-06T06:38:08;4.28;;;0.63;;
62256;SDS011;48240;52.962;5.790;2022-07-06T06:40:34;3.30;;;0.65;;
62256;SDS011;48240;52.962;5.790;2022-07-06T06:43:00;3.42;;;0.40;;
62256;SDS011;48240;52.962;5.790;2022-07-06T06:45:26;2.25;;;0.50;;
62256;SDS011;48240;52.962;5.790;2022-07-06T06:47:53;3.90;;;0.50;;
62256;SDS011;48240;52.962;5.790;2022-07-06T06:50:19;3.85;;;0.70;;
62256;SDS011;48240;52.962;5.790;2022-07-06T06:52:48;6.55;;;0.65;;
62256;SDS011;48240;52.962;5.790;2022-07-06T06:55:15;3.88;;;0.40;;
62256;SDS011;48240;52.962;5.790;2022-07-06T06:57:41;1.35;;;0.45;;
62256;SDS011;48240;52.962;5.790;2022-07-06T07:00:07;2.35;;;0.30;;
62256;SDS011;48240;52.962;5.790;2022-07-06T07:02:34;1.85;;;0.40;;
62256;SDS011;48240;52.962;5.790;2022-07-06T07:05:00;2.30;;;0.40;;
62256;SDS011;48240;52.962;5.790;2022-07-06T07:07:26;4.13;;;0.63;;
62256;SDS011;48240;52.962;5.790;2022-07-06T07:09:52;4.03;;;0.60;;
62256;SDS011;48240;52.962;5.790;2022-07-06T07:12:18;3.42;;;0.50;;
62256;SDS011;48240;52.962;5.790;2022-07-06T07:14:44;2.15;;;0.40;;
62256;SDS011;48240;52.962;5.790;2022-07-06T07:17:10;2.67;;;0.65;;
62256;SDS011;48240;52.962;5.790;2022-07-06T07:19:37;7.07;;;0.70;;
62256;SDS011;48240;52.962;5.790;2022-07-06T07:22:03;5.60;;;0.52;;
62256;SDS011;48240;52.962;5.790;2022-07-06T07:24:29;4.57;;;0.55;;
62256;SDS011;48240;52.962;5.790;2022-07-06T07:26:55;7.68;;;0.70;;
62256;SDS011;48240;52.962;5.790;2022-07-06T07:29:22;5.28;;;0.57;;
62256;SDS011;48240;52.962;5.790;2022-07-06T07:31:48;7.82;;;0.65;;
62256;SDS011;48240;52.962;5.790;2022-07-06T07:34:14;5.63;;;0.60;;
62256;SDS011;48240;52.962;5.790;2022-07-06T07:36:41;5.35;;;0.55;;
62256;SDS011;48240;52.962;5.790;2022-07-06T07:39:07;4.30;;;0.60;;
62256;SDS011;48240;52.962;5.790;2022-07-06T07:41:33;2.10;;;0.50;;
62256;SDS011;48240;52.962;5.790;2022-07-06T07:43:59;4.05;;;0.50;;
62256;SDS011;48240;52.962;5.790;2022-07-06T07:46:25;3.35;;;0.63;;
62256;SDS011;48240;52.962;5.790;2022-07-06T07:48:51;2.92;;;0.47;;
62256;SDS011;48240;52.962;5.790;2022-07-06T07:51:17;3.58;;;0.60;;
62256;SDS011;48240;52.962;5.790;2022-07-06T07:53:44;5.10;;;0.47;;
62256;SDS011;48240;52.962;5.790;2022-07-06T07:56:10;1.58;;;0.50;;
62256;SDS011;48240;52.962;5.790;2022-07-06T07:58:37;3.30;;;0.60;;
62256;SDS011;48240;52.962;5.790;2022-07-06T08:01:03;4.18;;;0.65;;
62256;SDS011;48240;52.962;5.790;2022-07-06T08:03:29;3.75;;;0.50;;
62256;SDS011;48240;52.962;5.790;2022-07-06T08:05:56;1.85;;;0.47;;
62256;SDS011;48240;52.962;5.790;2022-07-06T08:08:22;4.18;;;0.57;;
62256;SDS011;48240;52.962;5.790;2022-07-06T08:10:48;3.92;;;0.68;;
62256;SDS011;48240;52.962;5.790;2022-07-06T08:13:15;3.20;;;0.70;;
62256;SDS011;48240;52.962;5.790;2022-07-06T08:15:41;2.70;;;0.52;;
62256;SDS011;48240;52.962;5.790;2022-07-06T08:18:07;2.55;;;0.50;;
62256;SDS011;48240;52.962;5.790;2022-07-06T08:20:34;3.65;;;0.50;;
62256;SDS011;48240;52.962;5.790;2022-07-06T08:23:01;1.58;;;0.38;;
62256;SDS011;48240;52.962;5.790;2022-07-06T08:25:27;2.75;;;0.75;;
62256;SDS011;48240;52.962;5.790;2022-07-06T08:27:53;3.80;;;0.82;;
62256;SDS011;48240;52.962;5.790;2022-07-06T08:30:19;2.38;;;0.55;;
62256;SDS011;48240;52.962;5.790;2022-07-06T08:32:45;2.50;;;0.52;;
62256;SDS011;48240;52.962;5.790;2022-07-06T08:35:11;4.28;;;0.55;;
62256;SDS011;48240;52.962;5.790;2022-07-06T08:37:37;2.28;;;0.60;;
62256;SDS011;48240;52.962;5.790;2022-07-06T08:40:04;1.13;;;0.50;;
62256;SDS011;48240;52.962;5.790;2022-07-06T08:42:31;3.47;;;0.50;;
62256;SDS011;48240;52.962;5.790;2022-07-06T08:45:02;2.80;;;0.63;;
62256;SDS011;48240;52.962;5.790;2022-07-06T08:49:54;2.53;;;0.43;;
62256;SDS011;48240;52.962;5.790;2022-07-06T08:52:21;3.92;;;0.63;;
62256;SDS011;48240;52.962;5.790;2022-07-06T08:54:48;1.92;;;0.50;;
62256;SDS011;48240;52.962;5.790;2022-07-06T08:57:14;3.47;;;0.50;;
62256;SDS011;48240;52.962;5.790;2022-07-06T08:59:41;5.88;;;0.60;;
62256;SDS011;48240;52.962;5.790;2022-07-06T09:02:09;7.95;;;0.80;;
62256;SDS011;48240;52.962;5.790;2022-07-06T09:04:36;6.18;;;0.52;;
62256;SDS011;48240;52.962;5.790;2022-07-06T09:07:02;5.15;;;0.50;;
62256;SDS011;48240;52.962;5.790;2022-07-06T09:09:28;5.50;;;0.60;;
62256;SDS011;48240;52.962;5.790;2022-07-06T09:11:58;1.83;;;0.60;;
62256;SDS011;48240;52.962;5.790;2022-07-06T09:14:24;4.53;;;0.60;;
62256;SDS011;48240;52.962;5.790;2022-07-06T09:16:51;5.10;;;0.60;;
62256;SDS011;48240;52.962;5.790;2022-07-06T09:19:17;4.40;;;0.50;;
62256;SDS011;48240;52.962;5.790;2022-07-06T09:21:43;2.28;;;0.50;;
62256;SDS011;48240;52.962;5.790;2022-07-06T09:24:11;3.00;;;0.60;;
62256;SDS011;48240;52.962;5.790;2022-07-06T09:26:37;1.50;;;0.50;;
62256;SDS011;48240;52.962;5.790;2022-07-06T09:29:04;3.15;;;0.50;;
62256;SDS011;48240;52.962;5.790;2022-07-06T09:31:30;3.65;;;0.52;;
62256;SDS011;48240;52.962;5.790;2022-07-06T09:39:17;2.58;;;0.47;;
62256;SDS011;48240;52.962;5.790;2022-07-06T09:41:44;4.65;;;0.70;;
62256;SDS011;48240;52.962;5.790;2022-07-06T09:44:11;1.70;;;0.45;;
62256;SDS011;48240;52.962;5.790;2022-07-06T09:46:37;3.25;;;0.60;;
62256;SDS011;48240;52.962;5.790;2022-07-06T09:49:06;2.38;;;0.50;;
62256;SDS011;48240;52.962;5.790;2022-07-06T09:51:35;2.35;;;0.50;;
62256;SDS011;48240;52.962;5.790;2022-07-06T09:54:03;3.72;;;0.80;;
62256;SDS011;48240;52.962;5.790;2022-07-06T09:56:39;5.10;;;0.73;;
62256;SDS011;48240;52.962;5.790;2022-07-06T09:59:12;1.60;;;0.60;;
62256;SDS011;48240;52.962;5.790;2022-07-06T10:01:38;1.45;;;0.55;;
62256;SDS011;48240;52.962;5.790;2022-07-06T10:04:08;1.58;;;0.57;;
62256;SDS011;48240;52.962;5.790;2022-07-06T10:06:35;2.08;;;0.45;;
62256;SDS011;48240;52.962;5.790;2022-07-06T10:09:02;1.42;;;0.45;;
62256;SDS011;48240;52.962;5.790;2022-07-06T10:11:30;2.72;;;0.50;;
62256;SDS011;48240;52.962;5.790;2022-07-06T10:13:58;1.70;;;0.50;;
62256;SDS011;48240;52.962;5.790;2022-07-06T10:16:26;3.35;;;0.55;;
62256;SDS011;48240;52.962;5.790;2022-07-06T10:18:54;3.05;;;0.60;;
62256;SDS011;48240;52.962;5.790;2022-07-06T10:21:21;3.17;;;0.60;;
62256;SDS011;48240;52.962;5.790;2022-07-06T10:23:48;3.08;;;0.77;;
62256;SDS011;48240;52.962;5.790;2022-07-06T10:26:15;3.15;;;0.60;;
62256;SDS011;48240;52.962;5.790;2022-07-06T10:28:42;2.35;;;0.60;;
62256;SDS011;48240;52.962;5.790;2022-07-06T10:31:08;2.08;;;0.70;;
62256;SDS011;48240;52.962;5.790;2022-07-06T10:33:35;2.92;;;0.40;;
62256;SDS011;48240;52.962;5.790;2022-07-06T10:36:02;3.20;;;0.50;;
62256;SDS011;48240;52.962;5.790;2022-07-06T10:38:32;2.53;;;0.52;;
62256;SDS011;48240;52.962;5.790;2022-07-06T10:41:08;2.38;;;0.50;;
62256;SDS011;48240;52.962;5.790;2022-07-06T10:43:35;5.10;;;0.50;;
62256;SDS011;48240;52.962;5.790;2022-07-06T10:46:05;3.33;;;0.60;;
62256;SDS011;48240;52.962;5.790;2022-07-06T10:48:35;3.78;;;0.50;;
62256;SDS011;48240;52.962;5.790;2022-07-06T10:51:01;4.57;;;0.68;;
62256;SDS011;48240;52.962;5.790;2022-07-06T10:53:33;3.65;;;0.63;;
62256;SDS011;48240;52.962;5.790;2022-07-06T10:56:00;5.18;;;0.40;;
62256;SDS011;48240;52.962;5.790;2022-07-06T11:01:13;7.00;;;1.65;;
62256;SDS011;48240;52.962;5.790;2022-07-06T11:03:40;15.95;;;5.45;;
62256;SDS011;48240;52.962;5.790;2022-07-06T11:06:20;17.02;;;7.28;;
62256;SDS011;48240;52.962;5.790;2022-07-06T11:08:48;19.83;;;6.03;;
62256;SDS011;48240;52.962;5.790;2022-07-06T11:11:15;15.13;;;4.47;;
62256;SDS011;48240;52.962;5.790;2022-07-06T11:16:11;15.32;;;3.00;;
62256;SDS011;48240;52.962;5.790;2022-07-06T11:18:40;9.48;;;2.38;;
62256;SDS011;48240;52.962;5.790;2022-07-06T11:21:20;4.93;;;2.15;;
62256;SDS011;48240;52.962;5.790;2022-07-06T11:23:47;10.15;;;2.03;;
62256;SDS011;48240;52.962;5.790;2022-07-06T11:26:13;6.38;;;2.00;;
62256;SDS011;48240;52.962;5.790;2022-07-06T11:28:40;7.32;;;1.98;;
62256;SDS011;48240;52.962;5.790;2022-07-06T11:31:06;5.90;;;1.80;;
62256;SDS011;48240;52.962;5.790;2022-07-06T11:33:32;5.28;;;1.60;;
62256;SDS011;48240;52.962;5.790;2022-07-06T11:36:20;6.55;;;1.58;;
62256;SDS011;48240;52.962;5.790;2022-07-06T11:38:47;5.30;;;1.63;;
62256;SDS011;48240;52.962;5.790;2022-07-06T11:41:14;4.93;;;1.40;;
62256;SDS011;48240;52.962;5.790;2022-07-06T11:43:44;6.00;;;1.70;;
62256;SDS011;48240;52.962;5.790;2022-07-06T11:46:18;3.07;;;1.10;;
62256;SDS011;48240;52.962;5.790;2022-07-06T11:48:45;8.48;;;1.60;;
62256;SDS011;48240;52.962;5.790;2022-07-06T11:51:11;7.82;;;1.15;;
62256;SDS011;48240;52.962;5.790;2022-07-06T11:53:46;4.25;;;1.10;;
62256;SDS011;48240;52.962;5.790;2022-07-06T11:56:13;5.55;;;1.10;;
62256;SDS011;48240;52.962;5.790;2022-07-06T11:58:40;3.50;;;0.80;;
62256;SDS011;48240;52.962;5.790;2022-07-06T12:01:10;6.15;;;1.23;;
62256;SDS011;48240;52.962;5.790;2022-07-06T12:03:36;3.47;;;1.00;;
62256;SDS011;48240;52.962;5.790;2022-07-06T12:06:06;3.65;;;1.00;;
62256;SDS011;48240;52.962;5.790;2022-07-06T12:08:40;6.32;;;1.20;;
62256;SDS011;48240;52.962;5.790;2022-07-06T12:11:06;6.47;;;1.10;;
62256;SDS011;48240;52.962;5.790;2022-07-06T12:13:36;5.70;;;1.23;;
62256;SDS011;48240;52.962;5.790;2022-07-06T12:16:11;2.45;;;0.80;;
62256;SDS011;48240;52.962;5.790;2022-07-06T12:18:38;3.13;;;1.00;;
62256;SDS011;48240;52.962;5.790;2022-07-06T12:21:06;2.75;;;0.65;;
62256;SDS011;48240;52.962;5.790;2022-07-06T12:23:46;3.45;;;0.80;;
62256;SDS011;48240;52.962;5.790;2022-07-06T12:26:17;4.10;;;1.00;;
62256;SDS011;48240;52.962;5.790;2022-07-06T12:28:43;2.20;;;0.80;;
62256;SDS011;48240;52.962;5.790;2022-07-06T12:31:10;1.77;;;0.80;;
62256;SDS011;48240;52.962;5.790;2022-07-06T12:33:36;9.70;;;0.90;;
62256;SDS011;48240;52.962;5.790;2022-07-06T12:36:14;4.00;;;0.57;;
62256;SDS011;48240;52.962;5.790;2022-07-06T12:38:44;7.05;;;0.80;;
62256;SDS011;48240;52.962;5.790;2022-07-06T12:41:20;4.05;;;0.70;;
62256;SDS011;48240;52.962;5.790;2022-07-06T12:43:48;3.30;;;0.90;;
62256;SDS011;48240;52.962;5.790;2022-07-06T12:46:26;1.95;;;0.80;;
62256;SDS011;48240;52.962;5.790;2022-07-06T12:48:53;2.33;;;0.60;;
62256;SDS011;48240;52.962;5.790;2022-07-06T12:51:20;2.92;;;0.70;;
62256;SDS011;48240;52.962;5.790;2022-07-06T12:53:46;7.47;;;0.98;;
62256;SDS011;48240;52.962;5.790;2022-07-06T12:56:12;6.47;;;1.25;;
62256;SDS011;48240;52.962;5.790;2022-07-06T12:58:39;6.28;;;0.80;;
62256;SDS011;48240;52.962;5.790;2022-07-06T13:01:05;1.75;;;0.50;;
62256;SDS011;48240;52.962;5.790;2022-07-06T13:03:38;3.67;;;0.57;;
62256;SDS011;48240;52.962;5.790;2022-07-06T13:06:05;1.52;;;0.55;;
62256;SDS011;48240;52.962;5.790;2022-07-06T13:08:31;3.22;;;0.50;;
62256;SDS011;48240;52.962;5.790;2022-07-06T13:10:57;3.55;;;0.60;;
62256;SDS011;48240;52.962;5.790;2022-07-06T13:13:23;2.58;;;0.68;;
62256;SDS011;48240;52.962;5.790;2022-07-06T13:15:49;2.45;;;0.95;;
62256;SDS011;48240;52.962;5.790;2022-07-06T13:18:15;2.17;;;0.70;;
62256;SDS011;48240;52.962;5.790;2022-07-06T13:20:44;1.67;;;0.60;;
62256;SDS011;48240;52.962;5.790;2022-07-06T13:23:10;2.03;;;0.60;;
62256;SDS011;48240;52.962;5.790;2022-07-06T13:25:36;1.55;;;0.47;;
62256;SDS011;48240;52.962;5.790;2022-07-06T13:28:03;4.38;;;0.60;;
62256;SDS011;48240;52.962;5.790;2022-07-06T13:30:29;2.50;;;0.60;;
62256;SDS011;48240;52.962;5.790;2022-07-06T13:32:55;1.75;;;0.60;;
62256;SDS011;48240;52.962;5.790;2022-07-06T13:35:22;2.58;;;0.77;;
62256;SDS011;48240;52.962;5.790;2022-07-06T13:37:48;6.18;;;0.82;;
62256;SDS011;48240;52.962;5.790;2022-07-06T13:40:16;3.15;;;0.70;;
62256;SDS011;48240;52.962;5.790;2022-07-06T13:42:42;2.97;;;0.73;;
62256;SDS011;48240;52.962;5.790;2022-07-06T13:45:08;2.25;;;0.68;;
62256;SDS011;48240;52.962;5.790;2022-07-06T13:47:34;1.52;;;0.52;;
62256;SDS011;48240;52.962;5.790;2022-07-06T13:50:00;2.60;;;0.70;;
62256;SDS011;48240;52.962;5.790;2022-07-06T13:52:26;2.28;;;0.65;;
62256;SDS011;48240;52.962;5.790;2022-07-06T13:54:52;4.40;;;0.75;;
62256;SDS011;48240;52.962;5.790;2022-07-06T13:57:18;8.43;;;1.30;;
62256;SDS011;48240;52.962;5.790;2022-07-06T13:59:44;3.13;;;0.60;;
62256;SDS011;48240;52.962;5.790;2022-07-06T14:02:11;10.38;;;1.00;;
62256;SDS011;48240;52.962;5.790;2022-07-06T14:04:37;7.90;;;0.95;;
62256;SDS011;48240;52.962;5.790;2022-07-06T14:07:04;8.25;;;0.82;;
62256;SDS011;48240;52.962;5.790;2022-07-06T14:09:30;3.58;;;0.90;;
62256;SDS011;48240;52.962;5.790;2022-07-06T14:11:56;7.28;;;0.77;;
62256;SDS011;48240;52.962;5.790;2022-07-06T14:14:22;2.38;;;0.70;;
62256;SDS011;48240;52.962;5.790;2022-07-06T14:16:48;4.25;;;0.80;;
62256;SDS011;48240;52.962;5.790;2022-07-06T14:19:16;8.95;;;0.70;;
62256;SDS011;48240;52.962;5.790;2022-07-06T14:21:42;4.88;;;0.70;;
62256;SDS011;48240;52.962;5.790;2022-07-06T14:24:11;6.85;;;1.17;;
62256;SDS011;48240;52.962;5.790;2022-07-06T14:26:37;3.75;;;0.80;;
62256;SDS011;48240;52.962;5.790;2022-07-06T14:29:03;4.65;;;0.90;;
62256;SDS011;48240;52.962;5.790;2022-07-06T14:31:29;3.35;;;0.70;;
62256;SDS011;48240;52.962;5.790;2022-07-06T14:33:55;4.45;;;0.90;;
62256;SDS011;48240;52.962;5.790;2022-07-06T14:36:21;5.75;;;0.98;;
62256;SDS011;48240;52.962;5.790;2022-07-06T14:38:47;3.33;;;0.88;;
62256;SDS011;48240;52.962;5.790;2022-07-06T14:41:13;4.03;;;1.00;;
62256;SDS011;48240;52.962;5.790;2022-07-06T14:43:39;2.40;;;0.60;;
62256;SDS011;48240;52.962;5.790;2022-07-06T14:46:06;2.67;;;0.80;;
62256;SDS011;48240;52.962;5.790;2022-07-06T14:48:32;5.57;;;1.15;;
62256;SDS011;48240;52.962;5.790;2022-07-06T14:50:58;3.58;;;1.00;;
62256;SDS011;48240;52.962;5.790;2022-07-06T14:53:24;4.28;;;0.95;;
62256;SDS011;48240;52.962;5.790;2022-07-06T14:55:50;2.58;;;0.88;;
62256;SDS011;48240;52.962;5.790;2022-07-06T14:58:16;5.68;;;1.17;;